createdAt,value
2023-03-07T00:02:28.121Z,21.53
2023-03-07T00:07:52.173Z,19.80
2023-03-07T00:12:58.815Z,20.60
2023-03-07T00:18:08.121Z,21.20
2023-03-07T00:23:13.679Z,20.13
2023-03-07T00:28:28.913Z,20.10
2023-03-07T00:39:05.413Z,18.77
2023-03-07T00:44:19.383Z,23.23
2023-03-07T00:49:33.098Z,19.20
2023-03-07T00:54:37.507Z,16.43
2023-03-07T00:59:43.882Z,19.03
2023-03-07T01:04:58.378Z,18.00
2023-03-07T01:10:05.208Z,18.53
2023-03-07T01:15:11.678Z,19.20
2023-03-07T01:20:22.457Z,19.33
2023-03-07T01:25:29.306Z,18.17
2023-03-07T01:30:35.823Z,21.23
2023-03-07T01:35:51.020Z,19.23
2023-03-07T01:41:15.519Z,17.90
2023-03-07T01:46:53.074Z,16.50
2023-03-07T01:52:13.999Z,17.07
2023-03-07T01:57:38.262Z,20.00
2023-03-07T02:02:50.940Z,21.07
2023-03-07T02:08:01.440Z,18.70
2023-03-07T02:13:40.738Z,20.70
2023-03-07T02:18:56.284Z,22.23
2023-03-07T02:24:33.124Z,20.53
2023-03-07T02:29:44.701Z,22.33
2023-03-07T02:35:00.641Z,23.80
2023-03-07T02:40:25.336Z,23.50
2023-03-07T02:45:38.955Z,24.23
2023-03-07T02:51:13.717Z,24.13
2023-03-07T02:56:23.269Z,21.93
2023-03-07T03:01:41.926Z,22.33
2023-03-07T03:07:01.353Z,26.63
2023-03-07T03:12:17.906Z,21.73
2023-03-07T03:17:41.760Z,23.97
2023-03-07T03:22:46.308Z,26.57
2023-03-07T03:27:55.810Z,22.23
2023-03-07T03:33:32.874Z,22.03
2023-03-07T03:38:48.869Z,24.70
2023-03-07T03:44:00.360Z,26.87
2023-03-07T03:49:35.323Z,30.23
2023-03-07T03:54:54.948Z,24.63
2023-03-07T04:05:52.750Z,24.10
2023-03-07T04:11:03.550Z,25.67
2023-03-07T04:16:23.092Z,25.13
2023-03-07T04:21:27.626Z,25.13
2023-03-07T04:26:37.146Z,24.67
2023-03-07T04:31:49.232Z,27.00
2023-03-07T04:37:02.600Z,24.23
2023-03-07T04:42:48.713Z,24.17
2023-03-07T04:48:03.089Z,22.70
2023-03-07T04:53:10.435Z,19.73
2023-03-07T04:58:34.873Z,18.67
2023-03-07T05:04:16.682Z,17.33
2023-03-07T05:09:18.476Z,17.23
2023-03-07T05:14:43.041Z,19.20
2023-03-07T05:19:48.916Z,17.20
2023-03-07T05:25:27.815Z,18.70
2023-03-07T05:30:44.841Z,14.97
2023-03-07T05:36:24.165Z,7.63
2023-03-07T05:52:40.235Z,5.83
2023-03-07T05:58:48.179Z,6.97
2023-03-07T06:04:15.200Z,7.30
2023-03-07T06:09:44.898Z,5.13
2023-03-07T06:20:34.195Z,8.13
2023-03-07T06:25:51.553Z,6.97
2023-03-07T06:31:16.352Z,8.80
2023-03-07T06:36:28.772Z,12.53
2023-03-07T06:41:42.251Z,14.47
2023-03-07T06:46:57.879Z,12.67
2023-03-07T06:57:37.171Z,11.60
2023-03-07T07:03:04.924Z,10.87
2023-03-07T07:08:16.848Z,11.67
2023-03-07T07:13:25.751Z,13.10
2023-03-07T07:18:39.563Z,12.67
2023-03-07T07:24:22.115Z,13.57
2023-03-07T07:29:43.841Z,10.30
2023-03-07T07:34:47.404Z,8.53
2023-03-07T07:39:58.592Z,7.93
2023-03-07T07:45:11.015Z,6.77
2023-03-07T07:50:19.407Z,5.67
2023-03-07T07:55:28.850Z,6.57
2023-03-07T08:00:47.027Z,5.87
2023-03-07T08:05:56.009Z,6.13
2023-03-07T08:11:27.026Z,6.83
2023-03-07T08:16:42.659Z,3.30
2023-03-07T08:22:11.637Z,3.23
2023-03-07T08:27:23.088Z,3.10
2023-03-07T08:32:40.549Z,2.47
2023-03-07T08:43:17.603Z,4.23
2023-03-07T08:48:36.527Z,5.10
2023-03-07T08:59:57.530Z,3.10
2023-03-07T09:05:02.152Z,3.30
2023-03-07T09:10:12.196Z,5.97
2023-03-07T09:15:28.886Z,3.07
2023-03-07T09:20:48.329Z,4.07
2023-03-07T09:26:01.793Z,2.60
2023-03-07T09:43:08.076Z,4.87
2023-03-07T09:49:09.380Z,3.23
2023-03-07T09:54:49.371Z,1.70
2023-03-07T10:00:00.948Z,4.03
2023-03-07T10:05:22.135Z,1.37
2023-03-07T10:10:43.258Z,2.43
2023-03-07T10:16:07.560Z,3.07
2023-03-07T10:21:44.756Z,3.53
2023-03-07T10:27:20.927Z,2.53
2023-03-07T10:33:14.464Z,3.30
2023-03-07T10:44:32.362Z,4.80
2023-03-07T10:50:36.183Z,3.93
2023-03-07T11:01:50.222Z,4.57
2023-03-07T11:07:25.599Z,3.40
2023-03-07T11:12:53.696Z,4.80
2023-03-07T11:23:49.802Z,4.90
2023-03-07T11:29:33.167Z,5.27
2023-03-07T11:41:21.118Z,3.70
2023-03-07T11:47:05.706Z,4.20
2023-03-07T11:52:55.755Z,5.03
2023-03-07T11:58:35.494Z,2.60
2023-03-07T12:04:27.584Z,8.20
2023-03-07T12:10:02.588Z,3.63
2023-03-07T12:15:50.422Z,7.37
2023-03-07T12:21:40.499Z,7.30
2023-03-07T12:27:16.808Z,8.90
2023-03-07T12:32:56.319Z,6.03
2023-03-07T12:38:45.137Z,5.20
2023-03-07T12:44:15.172Z,6.03
2023-03-07T12:49:49.921Z,7.80
2023-03-07T12:55:36.536Z,6.43
2023-03-07T13:01:10.238Z,7.30
2023-03-07T13:12:39.293Z,6.93
2023-03-07T13:17:53.080Z,8.60
2023-03-07T13:28:48.287Z,6.17
2023-03-07T13:34:03.468Z,8.43
2023-03-07T13:40:09.590Z,7.47
2023-03-07T13:45:47.102Z,7.90
2023-03-07T13:51:10.216Z,5.20
2023-03-07T13:56:28.926Z,6.93
2023-03-07T14:02:09.707Z,3.87
2023-03-07T14:07:40.644Z,4.37
2023-03-07T14:13:45.397Z,4.30
2023-03-07T14:19:33.140Z,7.80
2023-03-07T14:25:04.964Z,6.80
2023-03-07T14:30:24.106Z,3.90
2023-03-07T14:35:50.746Z,5.70
2023-03-07T14:42:08.858Z,6.30
2023-03-07T14:48:01.645Z,7.40
2023-03-07T14:53:26.892Z,6.30
2023-03-07T14:59:00.128Z,7.43
2023-03-07T15:04:11.342Z,5.23
2023-03-07T15:09:16.349Z,6.17
2023-03-07T15:14:59.972Z,7.07
2023-03-07T15:20:28.960Z,4.37
2023-03-07T15:31:19.367Z,4.87
2023-03-07T15:36:43.867Z,5.83
2023-03-07T15:42:04.492Z,4.07
2023-03-07T15:53:22.201Z,2.00
2023-03-07T15:58:59.834Z,3.77
2023-03-07T16:04:27.372Z,4.43
2023-03-07T16:09:44.624Z,2.57
2023-03-07T16:14:57.203Z,5.67
2023-03-07T16:20:51.565Z,2.97
2023-03-07T16:26:20.517Z,3.80
2023-03-07T16:31:37.509Z,1.93
2023-03-07T16:37:00.335Z,3.03
2023-03-07T16:42:20.205Z,3.13
2023-03-07T16:47:56.871Z,3.53
2023-03-07T16:53:18.223Z,2.83
2023-03-07T16:58:44.095Z,23.90
2023-03-07T17:04:09.553Z,12.13
2023-03-07T17:21:34.430Z,3.60
2023-03-07T17:27:06.881Z,1.97
2023-03-07T17:43:49.331Z,4.00
2023-03-07T17:50:05.999Z,3.07
2023-03-07T18:07:12.383Z,3.10
2023-03-07T18:19:36.220Z,5.87
2023-03-07T18:25:42.406Z,3.53
2023-03-07T18:43:12.443Z,3.17
2023-03-07T18:54:39.735Z,5.03
2023-03-07T19:06:06.840Z,2.70
2023-03-07T19:11:43.774Z,3.20
2023-03-07T19:16:47.560Z,3.30
2023-03-07T19:22:28.700Z,3.87
2023-03-07T19:28:29.151Z,4.77
2023-03-07T19:40:11.432Z,5.43
2023-03-07T19:46:05.277Z,5.57
2023-03-07T19:51:47.380Z,7.00
2023-03-07T20:22:51.162Z,7.17
2023-03-07T20:35:11.851Z,10.67
2023-03-07T20:40:46.228Z,6.07
2023-03-07T20:53:24.240Z,19.93
2023-03-07T20:57:25.437Z,9.57
2023-03-07T21:15:12.835Z,54.00
2023-03-07T21:26:44.913Z,9.07
2023-03-07T21:38:41.725Z,9.40
2023-03-07T21:56:15.792Z,7.87
2023-03-07T22:20:50.675Z,12.80
2023-03-07T22:26:03.792Z,13.73
2023-03-07T22:31:19.975Z,12.43
2023-03-07T22:36:21.708Z,12.93
2023-03-07T22:41:39.493Z,20.03
2023-03-07T22:46:47.672Z,17.60
2023-03-07T22:52:02.528Z,16.40
2023-03-07T22:57:25.080Z,15.13
2023-03-07T23:03:06.067Z,15.33
2023-03-07T23:08:47.733Z,16.90
2023-03-07T23:14:14.944Z,14.03
2023-03-07T23:19:26.674Z,18.40
2023-03-07T23:24:42.755Z,15.93
2023-03-07T23:30:10.724Z,12.83
2023-03-07T23:35:21.838Z,14.40
2023-03-07T23:40:29.103Z,10.60
2023-03-07T23:45:38.315Z,12.80
2023-03-07T23:51:06.897Z,13.77
2023-03-07T23:56:20.406Z,10.77
